Terminal Aerodrome Forecast
Issued by NWS

Home | Current Version | Previous Version | Graphics & Text | Print | Product List | Glossary On
Versions: 1 2 3 4 5 6 7 8 9 10 11 12 13 14 15
000
FTUS43 KTOP 172320
TAFMHK
TAF
KMHK 172320Z 1800/1824 11015G24KT P6SM FEW250
     FM180200 12014KT P6SM FEW250 WS020/18040KT
     FM180600 29014KT P6SM BKN150
     FM181200 30018G25KT P6SM BKN025
     FM181500 31020G29KT P6SM SCT030=

USA.gov is the U.S. government's official web portal to all federal, state and local government web resources and services.